Time;durP1;ratioP1;P1;durP2;ratioP2;P2;SDS_P1;SDS_P2;PMS_P1;PMS_P2;Temp;Humidity;BMP_temperature;BMP_pressure;BME280_temperature;BME280_humidity;BME280_pressure;Samples;Min_cycle;Max_cycle;Signal;HPM_P1;HPM_P2
2022/09/26 00:01:36;;;;;;;13.23;4.07;;;;;;;;;;4982828;28;20263;-80
2022/09/26 00:04:05;;;;;;;9.87;4.23;;;;;;;;;;4983335;28;20228;-81
2022/09/26 00:06:33;;;;;;;7.50;3.93;;;;;;;;;;4986894;28;20221;-81
2022/09/26 00:09:02;;;;;;;8.30;3.97;;;;;;;;;;4980515;28;20201;-80
2022/09/26 00:11:31;;;;;;;8.50;4.23;;;;;;;;;;4981064;28;20209;-80
2022/09/26 00:13:59;;;;;;;6.83;3.93;;;;;;;;;;4980351;28;20211;-80
2022/09/26 00:16:27;;;;;;;15.73;4.63;;;;;;;;;;4978608;28;20232;-81
2022/09/26 00:18:55;;;;;;;8.93;4.77;;;;;;;;;;4981429;28;20496;-80
2022/09/26 00:21:23;;;;;;;9.17;4.47;;;;;;;;;;4981770;28;20205;-80
2022/09/26 00:23:50;;;;;;;10.60;4.70;;;;;;;;;;4982559;28;20219;-81
2022/09/26 00:26:20;;;;;;;7.93;4.27;;;;;;;;;;4982388;28;20298;-81
2022/09/26 00:28:48;;;;;;;14.20;4.40;;;;;;;;;;4986781;28;20205;-81
2022/09/26 00:31:17;;;;;;;8.27;4.30;;;;;;;;;;4986085;28;20216;-80
2022/09/26 00:33:44;;;;;;;7.23;4.00;;;;;;;;;;4983152;28;20569;-81
2022/09/26 00:36:11;;;;;;;6.17;3.57;;;;;;;;;;4992461;28;20295;-81
2022/09/26 00:38:39;;;;;;;7.87;3.83;;;;;;;;;;4985324;28;20676;-81
2022/09/26 00:41:07;;;;;;;7.83;3.67;;;;;;;;;;4988147;28;20204;-81
2022/09/26 00:43:37;;;;;;;16.37;4.20;;;;;;;;;;4985918;28;20216;-80
2022/09/26 00:46:15;;;;;;;10.83;4.23;;;;;;;;;;4985767;28;20235;-80
2022/09/26 00:48:42;;;;;;;7.17;3.97;;;;;;;;;;4987469;28;20201;-81
2022/09/26 00:51:10;;;;;;;10.57;4.17;;;;;;;;;;4988510;28;20205;-81
2022/09/26 00:53:39;;;;;;;10.20;4.40;;;;;;;;;;4986152;28;20197;-81
2022/09/26 00:56:14;;;;;;;10.23;4.37;;;;;;;;;;4989434;28;20239;-81
2022/09/26 00:58:46;;;;;;;7.00;3.93;;;;;;;;;;4985838;28;20671;-80
2022/09/26 01:01:21;;;;;;;11.67;4.17;;;;;;;;;;4986529;28;20225;-81
2022/09/26 01:03:49;;;;;;;7.97;3.87;;;;;;;;;;4986758;28;20201;-81
2022/09/26 01:06:17;;;;;;;9.13;3.60;;;;;;;;;;4990949;28;20243;-81
2022/09/26 01:08:48;;;;;;;10.57;3.50;;;;;;;;;;4988015;28;20209;-82
2022/09/26 01:11:15;;;;;;;16.73;3.87;;;;;;;;;;4989209;28;20293;-82
2022/09/26 01:13:45;;;;;;;11.50;3.70;;;;;;;;;;4985359;28;20210;-82
2022/09/26 01:16:13;;;;;;;9.03;3.80;;;;;;;;;;4988581;28;20229;-81
2022/09/26 01:18:40;;;;;;;6.60;3.57;;;;;;;;;;4995037;28;20289;-82
2022/09/26 01:21:15;;;;;;;15.00;4.03;;;;;;;;;;4992918;28;20205;-81
2022/09/26 01:24:13;;;;;;;9.23;4.17;;;;;;;;;;4992572;28;20200;-81
2022/09/26 01:26:53;;;;;;;10.57;4.10;;;;;;;;;;4921049;29;20727;-80
2022/09/26 01:29:38;;;;;;;6.07;3.87;;;;;;;;;;4982658;28;20205;-80
2022/09/26 01:35:00;;;;;;;8.60;3.77;;;;;;;;;;4990643;28;20228;-81
2022/09/26 01:37:32;;;;;;;8.97;4.23;;;;;;;;;;4991338;28;20209;-81
2022/09/26 01:40:04;;;;;;;8.77;4.13;;;;;;;;;;4993270;28;20201;-81
2022/09/26 01:42:36;;;;;;;6.70;3.83;;;;;;;;;;4991576;28;20204;-80
2022/09/26 01:45:08;;;;;;;14.80;3.80;;;;;;;;;;4991854;28;20729;-81
2022/09/26 01:47:41;;;;;;;9.93;4.20;;;;;;;;;;4988507;28;20271;-82
2022/09/26 01:50:14;;;;;;;7.63;4.00;;;;;;;;;;4990592;28;20209;-82
2022/09/26 01:52:44;;;;;;;8.87;3.73;;;;;;;;;;4995099;28;20200;-81
2022/09/26 01:55:14;;;;;;;8.37;3.67;;;;;;;;;;4990724;28;20696;-81
2022/09/26 01:57:44;;;;;;;8.43;3.97;;;;;;;;;;4984344;28;20212;-81
2022/09/26 02:00:14;;;;;;;7.93;4.00;;;;;;;;;;4983508;28;20210;-80
2022/09/26 02:02:44;;;;;;;7.20;3.73;;;;;;;;;;4985028;28;20288;-81
2022/09/26 02:05:15;;;;;;;11.77;4.13;;;;;;;;;;4981543;28;21605;-80
2022/09/26 02:07:45;;;;;;;8.00;3.97;;;;;;;;;;4984973;28;20209;-81
2022/09/26 02:10:14;;;;;;;11.00;4.20;;;;;;;;;;4983682;28;20220;-81
2022/09/26 02:12:44;;;;;;;11.37;4.00;;;;;;;;;;4983257;28;20667;-81
2022/09/26 02:15:13;;;;;;;11.80;4.20;;;;;;;;;;4981358;28;20252;-80
2022/09/26 02:17:44;;;;;;;7.47;3.87;;;;;;;;;;4988599;28;20200;-80
2022/09/26 02:20:16;;;;;;;7.17;3.90;;;;;;;;;;4981813;28;20212;-81
2022/09/26 02:22:43;;;;;;;7.43;3.93;;;;;;;;;;4986148;28;20679;-81
2022/09/26 02:25:11;;;;;;;7.97;4.03;;;;;;;;;;4986328;28;20773;-81
2022/09/26 02:27:39;;;;;;;8.53;4.17;;;;;;;;;;4983984;28;20201;-82
2022/09/26 02:30:07;;;;;;;9.03;3.73;;;;;;;;;;4983653;28;20308;-81
2022/09/26 02:32:35;;;;;;;5.93;3.70;;;;;;;;;;4982748;28;20209;-81
2022/09/26 02:35:52;;;;;;;6.53;3.23;;;;;;;;;;4982068;28;20244;-82
2022/09/26 02:38:04;;;;;;;10.57;4.10;;;;;;;;;;4986645;28;20660;-81
2022/09/26 02:40:36;;;;;;;10.57;3.83;;;;;;;;;;4989253;28;20209;-81
2022/09/26 02:43:08;;;;;;;8.87;4.07;;;;;;;;;;4986166;28;20197;-81
2022/09/26 02:45:42;;;;;;;9.23;3.50;;;;;;;;;;4989389;28;20224;-81
2022/09/26 02:48:17;;;;;;;7.87;4.03;;;;;;;;;;4988617;28;20212;-80
2022/09/26 02:50:53;;;;;;;6.90;3.63;;;;;;;;;;4987167;28;20205;-80
2022/09/26 02:53:28;;;;;;;10.57;4.03;;;;;;;;;;4986584;28;20209;-81
2022/09/26 02:56:03;;;;;;;11.67;3.73;;;;;;;;;;4988387;28;20228;-82
2022/09/26 02:58:34;;;;;;;6.83;3.57;;;;;;;;;;4985372;28;20208;-80
2022/09/26 03:01:04;;;;;;;12.13;3.67;;;;;;;;;;4988119;28;20734;-80
2022/09/26 03:03:34;;;;;;;7.53;4.03;;;;;;;;;;4988494;28;20201;-81
2022/09/26 03:06:04;;;;;;;12.33;3.63;;;;;;;;;;4985053;28;20291;-80
2022/09/26 03:08:36;;;;;;;9.40;3.50;;;;;;;;;;4987378;28;20212;-80
2022/09/26 03:11:04;;;;;;;8.57;3.90;;;;;;;;;;4984439;28;20224;-80
2022/09/26 03:13:34;;;;;;;10.00;4.00;;;;;;;;;;4989693;28;20255;-81
2022/09/26 03:16:02;;;;;;;12.30;3.63;;;;;;;;;;4982401;28;20229;-80
2022/09/26 03:18:32;;;;;;;11.30;4.20;;;;;;;;;;4987188;28;20204;-81
2022/09/26 03:21:00;;;;;;;8.60;3.63;;;;;;;;;;4988680;28;20201;-81
2022/09/26 03:23:29;;;;;;;5.63;3.10;;;;;;;;;;4987877;28;20215;-81
2022/09/26 03:26:00;;;;;;;6.77;3.60;;;;;;;;;;4985377;28;20228;-82
2022/09/26 03:28:28;;;;;;;6.33;3.40;;;;;;;;;;4985979;28;20205;-81
2022/09/26 03:30:55;;;;;;;13.07;4.07;;;;;;;;;;4987542;28;20287;-82
2022/09/26 03:33:23;;;;;;;9.80;3.93;;;;;;;;;;4985320;28;20256;-80
2022/09/26 03:35:51;;;;;;;6.43;3.70;;;;;;;;;;4984218;28;20283;-81
2022/09/26 03:38:18;;;;;;;10.43;3.83;;;;;;;;;;4984930;28;20679;-81
2022/09/26 03:40:49;;;;;;;5.77;3.40;;;;;;;;;;4984383;28;20264;-81
2022/09/26 03:43:16;;;;;;;8.57;3.50;;;;;;;;;;4985939;28;20208;-81
2022/09/26 03:45:44;;;;;;;8.10;3.70;;;;;;;;;;4991257;28;20224;-81
2022/09/26 03:48:11;;;;;;;6.00;3.37;;;;;;;;;;4987669;28;20209;-81
2022/09/26 03:50:38;;;;;;;7.27;3.27;;;;;;;;;;4986972;28;20287;-80
2022/09/26 03:53:06;;;;;;;6.20;3.40;;;;;;;;;;4984132;28;20209;-80
2022/09/26 03:55:33;;;;;;;9.07;3.70;;;;;;;;;;4986436;28;20243;-81
2022/09/26 03:58:02;;;;;;;6.93;3.80;;;;;;;;;;4983783;28;20208;-80
2022/09/26 04:00:29;;;;;;;11.30;3.47;;;;;;;;;;4988996;28;20205;-81
2022/09/26 04:02:57;;;;;;;9.17;3.70;;;;;;;;;;4984432;28;20205;-81
2022/09/26 04:05:24;;;;;;;7.27;3.57;;;;;;;;;;4989692;28;20232;-80
2022/09/26 04:07:51;;;;;;;8.70;4.03;;;;;;;;;;4986377;28;20202;-80
2022/09/26 04:10:19;;;;;;;7.93;3.70;;;;;;;;;;4988419;28;20213;-82
2022/09/26 04:12:46;;;;;;;8.40;4.10;;;;;;;;;;4986858;28;20205;-81
2022/09/26 04:15:15;;;;;;;9.30;3.80;;;;;;;;;;4986301;28;20240;-80
2022/09/26 04:17:42;;;;;;;8.30;4.10;;;;;;;;;;4980777;28;20700;-81
2022/09/26 04:20:09;;;;;;;11.67;3.83;;;;;;;;;;4986017;28;20219;-81
2022/09/26 04:22:37;;;;;;;9.33;3.63;;;;;;;;;;4981306;28;20247;-80
2022/09/26 04:25:05;;;;;;;7.80;3.53;;;;;;;;;;4987403;28;20225;-81
2022/09/26 04:27:32;;;;;;;13.83;3.47;;;;;;;;;;4982524;28;20260;-81
2022/09/26 04:29:59;;;;;;;7.50;3.93;;;;;;;;;;4981918;28;20209;-81
2022/09/26 04:32:28;;;;;;;6.07;3.83;;;;;;;;;;4984234;28;20197;-81
2022/09/26 04:34:56;;;;;;;6.63;3.63;;;;;;;;;;4977368;28;20589;-80
2022/09/26 04:37:24;;;;;;;9.17;4.40;;;;;;;;;;4985441;28;20228;-81
2022/09/26 04:39:51;;;;;;;12.83;4.30;;;;;;;;;;4985186;28;20209;-81
2022/09/26 04:42:18;;;;;;;7.70;4.23;;;;;;;;;;4986232;28;20228;-81
2022/09/26 04:44:47;;;;;;;9.90;3.70;;;;;;;;;;4981825;28;20227;-80
2022/09/26 04:47:14;;;;;;;13.70;4.33;;;;;;;;;;4985429;28;20687;-80
2022/09/26 04:49:43;;;;;;;12.13;3.90;;;;;;;;;;4981564;28;20801;-80
2022/09/26 04:52:10;;;;;;;11.60;4.43;;;;;;;;;;4986652;28;20296;-80
2022/09/26 04:54:37;;;;;;;12.40;4.47;;;;;;;;;;4987505;28;20221;-80
2022/09/26 04:57:05;;;;;;;15.83;4.70;;;;;;;;;;4983981;28;20222;-82
2022/09/26 04:59:32;;;;;;;9.83;4.70;;;;;;;;;;4989973;28;20205;-81
2022/09/26 05:02:06;;;;;;;9.70;4.40;;;;;;;;;;4985557;28;20202;-81
2022/09/26 05:04:34;;;;;;;8.47;4.37;;;;;;;;;;4987044;28;20227;-80
2022/09/26 05:07:03;;;;;;;11.83;4.30;;;;;;;;;;4985879;28;20209;-80
2022/09/26 05:09:31;;;;;;;13.83;4.27;;;;;;;;;;4984042;28;20200;-81
2022/09/26 05:11:58;;;;;;;6.57;3.87;;;;;;;;;;4981832;28;20699;-80
2022/09/26 05:14:26;;;;;;;8.70;4.33;;;;;;;;;;4983064;28;20696;-81
2022/09/26 05:16:53;;;;;;;12.80;4.80;;;;;;;;;;4980763;28;20232;-81
2022/09/26 05:19:20;;;;;;;8.57;4.30;;;;;;;;;;4985835;28;20205;-81
2022/09/26 05:21:47;;;;;;;6.83;3.90;;;;;;;;;;4986437;28;20695;-81
2022/09/26 05:27:01;;;;;;;8.50;4.27;;;;;;;;;;4984166;28;20678;-81
2022/09/26 05:29:29;;;;;;;7.87;4.53;;;;;;;;;;4985296;28;20240;-81
2022/09/26 05:31:56;;;;;;;6.37;4.13;;;;;;;;;;4989818;28;20209;-80
2022/09/26 05:34:24;;;;;;;6.67;4.20;;;;;;;;;;4989029;28;20215;-81
2022/09/26 05:36:52;;;;;;;7.93;4.10;;;;;;;;;;4991802;28;20224;-81
2022/09/26 05:42:06;;;;;;;7.17;4.10;;;;;;;;;;4987975;28;20212;-81
2022/09/26 05:44:33;;;;;;;12.10;5.03;;;;;;;;;;4987473;28;20237;-81
2022/09/26 05:47:04;;;;;;;9.73;4.20;;;;;;;;;;4986588;28;20202;-81
2022/09/26 05:49:32;;;;;;;12.03;4.37;;;;;;;;;;4989997;28;20209;-80
2022/09/26 05:52:01;;;;;;;7.67;4.77;;;;;;;;;;4986066;28;20208;-81
2022/09/26 05:54:37;;;;;;;6.73;3.97;;;;;;;;;;4989075;28;20869;-80
2022/09/26 05:57:11;;;;;;;11.27;3.97;;;;;;;;;;4987985;28;20710;-80
2022/09/26 05:59:39;;;;;;;12.93;5.10;;;;;;;;;;4990938;28;20207;-81
2022/09/26 06:02:06;;;;;;;12.57;4.83;;;;;;;;;;4985611;28;20202;-80
2022/09/26 06:04:34;;;;;;;11.37;4.77;;;;;;;;;;4992562;28;20237;-80
2022/09/26 06:07:02;;;;;;;10.73;4.60;;;;;;;;;;4985954;28;20196;-80
2022/09/26 06:09:33;;;;;;;10.70;4.43;;;;;;;;;;4983452;28;20232;-82
2022/09/26 06:12:00;;;;;;;11.23;4.97;;;;;;;;;;4985640;28;20202;-82
2022/09/26 06:14:28;;;;;;;11.73;5.13;;;;;;;;;;4985092;28;20209;-82
2022/09/26 06:16:56;;;;;;;7.90;4.77;;;;;;;;;;4983654;28;20237;-81
2022/09/26 06:19:24;;;;;;;9.87;4.87;;;;;;;;;;4986492;28;20197;-81
2022/09/26 06:21:54;;;;;;;11.87;4.83;;;;;;;;;;5056313;22;20281;-79
2022/09/26 06:24:22;;;;;;;11.90;5.00;;;;;;;;;;5041793;28;20199;-80
2022/09/26 06:26:51;;;;;;;17.97;5.90;;;;;;;;;;5038436;28;20587;-83
2022/09/26 06:29:18;;;;;;;20.73;5.90;;;;;;;;;;5040950;28;20214;-81
2022/09/26 06:31:45;;;;;;;9.00;5.13;;;;;;;;;;5051614;28;20202;-81
2022/09/26 06:34:13;;;;;;;14.37;5.53;;;;;;;;;;5043657;28;20209;-80
2022/09/26 06:36:40;;;;;;;15.10;4.90;;;;;;;;;;5050533;28;20229;-80
2022/09/26 06:39:09;;;;;;;10.00;5.03;;;;;;;;;;5045400;28;20216;-80
2022/09/26 06:41:36;;;;;;;12.73;5.37;;;;;;;;;;5048741;28;20203;-81
2022/09/26 06:44:06;;;;;;;12.00;5.87;;;;;;;;;;5050090;28;20204;-81
2022/09/26 06:46:33;;;;;;;11.27;5.03;;;;;;;;;;5044643;28;20485;-81
2022/09/26 06:49:01;;;;;;;10.80;5.63;;;;;;;;;;5038993;28;20211;-81
2022/09/26 06:51:28;;;;;;;15.07;5.63;;;;;;;;;;5049065;28;20211;-80
2022/09/26 06:53:55;;;;;;;12.20;5.60;;;;;;;;;;5044188;28;20207;-80
2022/09/26 06:56:22;;;;;;;13.30;5.43;;;;;;;;;;5041252;28;20227;-81
2022/09/26 06:58:50;;;;;;;9.40;4.90;;;;;;;;;;5039088;28;20218;-81
2022/09/26 07:01:19;;;;;;;9.97;4.63;;;;;;;;;;5058845;28;20209;-81
2022/09/26 07:03:46;;;;;;;8.93;3.93;;;;;;;;;;5039836;28;20278;-81
2022/09/26 07:06:14;;;;;;;9.17;4.73;;;;;;;;;;5038082;28;20223;-79
2022/09/26 07:08:41;;;;;;;8.87;3.90;;;;;;;;;;5043341;28;20203;-79
2022/09/26 07:11:08;;;;;;;7.20;3.70;;;;;;;;;;5040913;28;20222;-80
2022/09/26 07:13:36;;;;;;;10.17;4.00;;;;;;;;;;5041507;28;20206;-80
2022/09/26 07:16:04;;;;;;;8.00;4.07;;;;;;;;;;5039869;28;20235;-80
2022/09/26 07:18:33;;;;;;;15.27;3.87;;;;;;;;;;5041244;28;20231;-80
2022/09/26 07:21:04;;;;;;;9.90;4.30;;;;;;;;;;5038964;28;20200;-82
2022/09/26 07:23:31;;;;;;;11.00;4.17;;;;;;;;;;5056267;28;21140;-80
2022/09/26 07:25:59;;;;;;;10.43;4.03;;;;;;;;;;5039628;28;20220;-80
2022/09/26 07:28:26;;;;;;;9.23;4.03;;;;;;;;;;5039173;28;20211;-79
2022/09/26 07:30:56;;;;;;;11.27;4.60;;;;;;;;;;5037028;28;20209;-80
2022/09/26 07:33:24;;;;;;;8.37;3.90;;;;;;;;;;5039576;28;20199;-80
2022/09/26 07:35:53;;;;;;;5.67;3.27;;;;;;;;;;5037236;28;20989;-78
2022/09/26 07:38:21;;;;;;;6.47;3.20;;;;;;;;;;5038908;28;20215;-78
2022/09/26 07:40:52;;;;;;;6.30;3.30;;;;;;;;;;5038100;28;20203;-79
2022/09/26 07:43:20;;;;;;;7.67;3.60;;;;;;;;;;5038294;28;20268;-79
2022/09/26 07:51:19;;;;;;;6.70;3.43;;;;;;;;;;5038536;28;20320;-81
2022/09/26 07:53:46;;;;;;;6.13;3.40;;;;;;;;;;5034733;28;21305;-80
2022/09/26 07:56:16;;;;;;;6.57;3.40;;;;;;;;;;5033592;28;20227;-81
2022/09/26 07:58:45;;;;;;;13.10;3.40;;;;;;;;;;5033311;28;20220;-81
2022/09/26 08:01:13;;;;;;;7.60;3.30;;;;;;;;;;5032550;28;20253;-81
2022/09/26 08:03:41;;;;;;;9.37;3.10;;;;;;;;;;5038961;28;20242;-81
2022/09/26 08:06:08;;;;;;;5.17;2.80;;;;;;;;;;5034332;28;20667;-81
2022/09/26 08:08:38;;;;;;;7.93;3.03;;;;;;;;;;5038371;28;20214;-80
2022/09/26 08:11:14;;;;;;;7.77;2.53;;;;;;;;;;5038995;28;20202;-78
2022/09/26 08:13:42;;;;;;;5.37;2.77;;;;;;;;;;5037419;28;20583;-80
2022/09/26 08:16:10;;;;;;;3.30;2.20;;;;;;;;;;5040379;28;20293;-79
2022/09/26 08:18:38;;;;;;;3.93;1.73;;;;;;;;;;5036300;28;20215;-79
2022/09/26 08:21:05;;;;;;;4.53;1.87;;;;;;;;;;5039409;28;20670;-80
2022/09/26 08:23:33;;;;;;;4.97;1.70;;;;;;;;;;5039790;28;20594;-80
2022/09/26 08:26:03;;;;;;;4.40;1.63;;;;;;;;;;5038091;28;20214;-81
2022/09/26 08:28:30;;;;;;;5.90;2.00;;;;;;;;;;5040624;28;20565;-79
2022/09/26 08:30:59;;;;;;;5.53;1.80;;;;;;;;;;5042035;28;20207;-82
2022/09/26 08:33:26;;;;;;;5.40;2.00;;;;;;;;;;5038168;28;20225;-80
2022/09/26 08:35:54;;;;;;;4.13;1.63;;;;;;;;;;5036223;28;20292;-83
2022/09/26 08:38:21;;;;;;;6.60;1.73;;;;;;;;;;5030354;28;20696;-81
2022/09/26 08:40:53;;;;;;;7.10;1.73;;;;;;;;;;5032339;28;20214;-82
2022/09/26 08:43:38;;;;;;;5.47;1.40;;;;;;;;;;5039219;28;20349;-81
2022/09/26 08:46:33;;;;;;;3.40;1.40;;;;;;;;;;5043654;28;20219;-83
2022/09/26 08:49:13;;;;;;;8.13;1.73;;;;;;;;;;5042554;28;20226;-84
2022/09/26 08:51:41;;;;;;;5.80;1.70;;;;;;;;;;5042664;28;20231;-81
2022/09/26 08:54:11;;;;;;;4.80;1.70;;;;;;;;;;5039886;28;20290;-82
2022/09/26 08:56:42;;;;;;;2.70;1.27;;;;;;;;;;5053441;28;20208;-80
2022/09/26 08:59:13;;;;;;;4.90;1.43;;;;;;;;;;5056985;28;20223;-81
2022/09/26 09:01:42;;;;;;;4.97;1.67;;;;;;;;;;5062001;28;20207;-82
2022/09/26 09:04:14;;;;;;;3.00;1.43;;;;;;;;;;5060827;28;20217;-86
2022/09/26 09:06:43;;;;;;;9.53;1.53;;;;;;;;;;5064711;28;20185;-85
2022/09/26 09:09:13;;;;;;;5.03;1.53;;;;;;;;;;5048011;28;20278;-83
2022/09/26 09:11:47;;;;;;;3.70;1.60;;;;;;;;;;5056052;28;20195;-84
2022/09/26 09:14:24;;;;;;;7.20;1.80;;;;;;;;;;5048180;28;20207;-85
2022/09/26 09:16:59;;;;;;;7.37;1.40;;;;;;;;;;5045185;28;20207;-83
2022/09/26 09:19:30;;;;;;;3.40;1.40;;;;;;;;;;5047746;28;20271;-81
2022/09/26 09:22:06;;;;;;;5.83;1.43;;;;;;;;;;5039922;28;20223;-84
2022/09/26 09:24:39;;;;;;;2.97;1.67;;;;;;;;;;5050052;28;20218;-86
2022/09/26 09:27:13;;;;;;;4.23;1.53;;;;;;;;;;5041793;28;20208;-84
2022/09/26 09:29:49;;;;;;;4.97;1.33;;;;;;;;;;5039610;28;20240;-83
2022/09/26 09:32:20;;;;;;;5.03;1.73;;;;;;;;;;5044430;28;20226;-84
2022/09/26 09:34:48;;;;;;;2.10;1.23;;;;;;;;;;5045107;28;20314;-81
2022/09/26 09:37:17;;;;;;;3.20;1.33;;;;;;;;;;5048119;28;20249;-85
2022/09/26 09:39:46;;;;;;;3.60;1.50;;;;;;;;;;5048597;28;20215;-83
2022/09/26 09:42:15;;;;;;;4.07;1.40;;;;;;;;;;5044670;28;20215;-85
2022/09/26 09:44:45;;;;;;;12.60;1.83;;;;;;;;;;5043014;28;20233;-85
2022/09/26 09:47:15;;;;;;;3.77;1.27;;;;;;;;;;5048780;28;20586;-83
2022/09/26 09:49:43;;;;;;;2.60;1.40;;;;;;;;;;5044678;28;20195;-84
2022/09/26 09:52:18;;;;;;;8.00;1.50;;;;;;;;;;5047740;28;20298;-84
2022/09/26 09:54:49;;;;;;;5.23;1.40;;;;;;;;;;5046655;28;20229;-86
2022/09/26 09:57:33;;;;;;;3.73;1.57;;;;;;;;;;5047167;28;20200;-86
2022/09/26 10:00:05;;;;;;;5.37;1.70;;;;;;;;;;5043787;28;20192;-85
2022/09/26 10:02:38;;;;;;;5.20;1.30;;;;;;;;;;5039141;28;20258;-85
2022/09/26 10:05:16;;;;;;;3.47;1.53;;;;;;;;;;5040969;28;20250;-84
2022/09/26 10:07:46;;;;;;;3.17;1.40;;;;;;;;;;5032568;28;20759;-85
2022/09/26 10:10:18;;;;;;;6.37;1.30;;;;;;;;;;5038141;28;20293;-85
2022/09/26 10:12:46;;;;;;;3.50;1.37;;;;;;;;;;5038950;28;20202;-85
2022/09/26 10:15:18;;;;;;;2.60;1.03;;;;;;;;;;5037592;28;20223;-85
2022/09/26 10:17:59;;;;;;;10.10;1.87;;;;;;;;;;5040193;28;20210;-85
2022/09/26 10:20:42;;;;;;;4.50;1.50;;;;;;;;;;5039354;28;20593;-84
2022/09/26 10:23:19;;;;;;;5.83;1.40;;;;;;;;;;5006994;28;20269;-86
2022/09/26 10:25:48;;;;;;;3.60;1.40;;;;;;;;;;5038804;28;20714;-84
2022/09/26 10:28:24;;;;;;;2.37;1.50;;;;;;;;;;5040851;28;20204;-85
2022/09/26 10:30:54;;;;;;;4.90;1.50;;;;;;;;;;5045591;28;20210;-83
2022/09/26 10:33:26;;;;;;;3.50;1.40;;;;;;;;;;5045890;28;20205;-85
2022/09/26 10:36:03;;;;;;;4.23;1.67;;;;;;;;;;5042945;28;20223;-84
2022/09/26 10:38:31;;;;;;;3.13;1.70;;;;;;;;;;5042537;28;20221;-86
2022/09/26 10:40:58;;;;;;;3.57;1.40;;;;;;;;;;5040530;28;20210;-86
2022/09/26 10:43:29;;;;;;;6.40;1.80;;;;;;;;;;5044121;28;20203;-84
2022/09/26 10:46:00;;;;;;;4.63;2.03;;;;;;;;;;5044415;28;20328;-90
2022/09/26 10:48:37;;;;;;;5.03;2.13;;;;;;;;;;5046072;28;20219;-90
2022/09/26 10:51:06;;;;;;;5.90;1.87;;;;;;;;;;5045566;28;20253;-86
2022/09/26 10:53:37;;;;;;;3.57;2.10;;;;;;;;;;5042340;28;20637;-85
2022/09/26 10:56:09;;;;;;;7.03;1.93;;;;;;;;;;5044215;28;20837;-85
2022/09/26 10:58:39;;;;;;;4.53;1.87;;;;;;;;;;5040443;28;20385;-84
2022/09/26 11:01:07;;;;;;;9.87;4.47;;;;;;;;;;5039814;28;20199;-85
2022/09/26 11:03:45;;;;;;;9.70;4.17;;;;;;;;;;5039687;28;20203;-81
2022/09/26 11:06:22;;;;;;;4.40;1.90;;;;;;;;;;5044570;28;20260;-85
2022/09/26 11:08:52;;;;;;;10.13;5.90;;;;;;;;;;5042227;28;20201;-85
2022/09/26 11:11:21;;;;;;;8.37;4.33;;;;;;;;;;5047239;28;20239;-85
2022/09/26 11:14:02;;;;;;;22.20;14.30;;;;;;;;;;5043297;28;20559;-84
2022/09/26 11:16:29;;;;;;;10.57;5.70;;;;;;;;;;5038687;28;20220;-84
2022/09/26 11:19:03;;;;;;;3.20;1.77;;;;;;;;;;5038954;28;20219;-85
2022/09/26 11:21:40;;;;;;;5.03;2.10;;;;;;;;;;5042702;28;20290;-83
2022/09/26 11:24:14;;;;;;;13.33;7.83;;;;;;;;;;5044343;28;20203;-85
2022/09/26 11:26:48;;;;;;;4.23;2.07;;;;;;;;;;5037080;28;20213;-85
2022/09/26 11:29:19;;;;;;;6.20;2.90;;;;;;;;;;5044090;28;20256;-87
2022/09/26 11:31:47;;;;;;;7.10;3.27;;;;;;;;;;5039137;28;20579;-86
2022/09/26 11:34:17;;;;;;;10.03;4.47;;;;;;;;;;5042746;28;20255;-87
2022/09/26 11:36:51;;;;;;;5.93;3.80;;;;;;;;;;5040246;28;20233;-87
2022/09/26 11:39:29;;;;;;;3.03;1.90;;;;;;;;;;5041104;28;20639;-85
2022/09/26 11:42:04;;;;;;;3.67;2.30;;;;;;;;;;5041423;28;20642;-85
2022/09/26 11:44:37;;;;;;;3.90;2.00;;;;;;;;;;5040514;28;20202;-87
2022/09/26 11:47:11;;;;;;;3.53;2.57;;;;;;;;;;5041159;28;20211;-85
2022/09/26 11:50:00;;;;;;;4.30;2.60;;;;;;;;;;5041874;28;20195;-85
2022/09/26 11:52:41;;;;;;;4.80;2.23;;;;;;;;;;5038218;28;20736;-85
2022/09/26 11:55:18;;;;;;;5.33;3.40;;;;;;;;;;5043559;28;20226;-87
2022/09/26 11:57:49;;;;;;;8.63;4.90;;;;;;;;;;5038883;28;20596;-81
2022/09/26 12:00:26;;;;;;;9.70;5.43;;;;;;;;;;5040593;28;20730;-86
2022/09/26 12:03:08;;;;;;;31.30;21.53;;;;;;;;;;5038976;28;20737;-88
2022/09/26 12:05:42;;;;;;;58.40;39.23;;;;;;;;;;5011301;28;20613;-89
2022/09/26 12:08:19;;;;;;;6.50;4.63;;;;;;;;;;5044379;28;20203;-88
2022/09/26 12:10:54;;;;;;;4.30;2.87;;;;;;;;;;5042648;28;20641;-89
2022/09/26 12:13:33;;;;;;;6.00;3.33;;;;;;;;;;5042977;28;20213;-84
2022/09/26 12:16:03;;;;;;;5.60;2.80;;;;;;;;;;5043712;28;20222;-87
2022/09/26 12:18:36;;;;;;;4.60;2.47;;;;;;;;;;5040323;28;20228;-86
2022/09/26 12:21:13;;;;;;;9.10;2.70;;;;;;;;;;5043011;28;20477;-86
2022/09/26 12:23:45;;;;;;;14.97;5.57;;;;;;;;;;5041342;28;20206;-86
2022/09/26 12:26:17;;;;;;;7.47;3.03;;;;;;;;;;5040058;28;20250;-87
2022/09/26 12:29:08;;;;;;;5.20;2.90;;;;;;;;;;5222000;23;20271;-85
2022/09/26 12:31:49;;;;;;;6.57;2.60;;;;;;;;;;4984529;28;20238;-87
2022/09/26 12:34:24;;;;;;;7.53;2.80;;;;;;;;;;5019954;28;20259;-86
2022/09/26 12:37:00;;;;;;;4.47;2.30;;;;;;;;;;5022432;28;20688;-87
2022/09/26 12:39:45;;;;;;;4.07;2.30;;;;;;;;;;5019379;28;20215;-86
2022/09/26 12:42:25;;;;;;;6.60;2.10;;;;;;;;;;5021153;28;20667;-87
2022/09/26 12:45:04;;;;;;;3.57;2.57;;;;;;;;;;5023887;28;20223;-86
2022/09/26 12:47:51;;;;;;;3.80;1.90;;;;;;;;;;5024712;28;20259;-88
2022/09/26 12:50:29;;;;;;;3.33;1.57;;;;;;;;;;5022211;28;20282;-87
2022/09/26 12:53:18;;;;;;;4.63;1.73;;;;;;;;;;5023278;28;21062;-88
2022/09/26 12:55:48;;;;;;;4.80;2.20;;;;;;;;;;5021844;28;20223;-89
2022/09/26 12:58:23;;;;;;;4.37;1.90;;;;;;;;;;5022788;28;20214;-87
2022/09/26 13:00:57;;;;;;;3.53;1.97;;;;;;;;;;5018738;28;20225;-85
2022/09/26 13:03:45;;;;;;;3.97;1.90;;;;;;;;;;5024831;28;20724;-92
2022/09/26 13:06:31;;;;;;;4.30;2.47;;;;;;;;;;5024300;28;20230;-90
2022/09/26 13:09:03;;;;;;;4.40;1.90;;;;;;;;;;5025368;28;20199;-89
2022/09/26 13:11:38;;;;;;;2.83;1.57;;;;;;;;;;5021133;28;20210;-89
2022/09/26 13:14:25;;;;;;;4.07;1.30;;;;;;;;;;5024682;28;20505;-90
2022/09/26 13:17:04;;;;;;;3.17;1.40;;;;;;;;;;5028410;28;20637;-90
2022/09/26 13:19:35;;;;;;;5.20;3.93;;;;;;;;;;5026346;28;20239;-90
2022/09/26 13:22:04;;;;;;;4.67;3.23;;;;;;;;;;5026285;28;20328;-90
2022/09/26 13:24:37;;;;;;;4.57;1.87;;;;;;;;;;5027447;28;20230;-92
2022/09/26 13:27:10;;;;;;;4.27;2.60;;;;;;;;;;5024450;28;20762;-89
2022/09/26 13:29:38;;;;;;;5.00;1.50;;;;;;;;;;5020047;28;20307;-90
2022/09/26 13:32:13;;;;;;;3.40;1.83;;;;;;;;;;5023533;28;20272;-89
2022/09/26 13:34:46;;;;;;;3.30;1.67;;;;;;;;;;5024712;28;20797;-88
2022/09/26 13:37:19;;;;;;;6.67;1.80;;;;;;;;;;5023643;28;20583;-89
2022/09/26 13:39:48;;;;;;;4.50;1.50;;;;;;;;;;5021756;28;20359;-86
2022/09/26 13:42:20;;;;;;;2.80;1.10;;;;;;;;;;5022165;28;20207;-89
2022/09/26 13:44:59;;;;;;;3.03;1.50;;;;;;;;;;5024610;28;20235;-89
2022/09/26 13:47:33;;;;;;;3.97;2.13;;;;;;;;;;5024507;28;20291;-89
2022/09/26 13:50:04;;;;;;;2.20;1.00;;;;;;;;;;5022991;28;20577;-89
2022/09/26 13:52:38;;;;;;;5.47;1.80;;;;;;;;;;5026257;28;20207;-86
2022/09/26 13:55:18;;;;;;;1.83;0.97;;;;;;;;;;5021626;28;20223;-88
2022/09/26 13:57:51;;;;;;;2.30;1.17;;;;;;;;;;5023205;28;20203;-88
2022/09/26 14:00:37;;;;;;;3.60;1.30;;;;;;;;;;5024660;28;20223;-87
2022/09/26 14:03:24;;;;;;;3.03;1.33;;;;;;;;;;5042896;28;20199;-86
2022/09/26 14:06:07;;;;;;;4.80;1.20;;;;;;;;;;5022618;28;20262;-88
2022/09/26 14:11:26;;;;;;;1.93;1.13;;;;;;;;;;5022097;28;20202;-88
2022/09/26 14:14:14;;;;;;;3.77;1.10;;;;;;;;;;5019366;28;20234;-88
2022/09/26 14:16:42;;;;;;;4.70;1.23;;;;;;;;;;5021107;28;20985;-88
2022/09/26 14:19:11;;;;;;;4.63;1.33;;;;;;;;;;5026109;28;20310;-90
2022/09/26 14:21:40;;;;;;;1.60;1.20;;;;;;;;;;5024714;28;20207;-89
2022/09/26 14:24:29;;;;;;;3.23;1.20;;;;;;;;;;5026592;28;20200;-88
2022/09/26 14:27:14;;;;;;;4.80;1.20;;;;;;;;;;5023330;28;20200;-88
2022/09/26 14:29:47;;;;;;;3.17;1.00;;;;;;;;;;4994792;28;20291;-89
2022/09/26 14:35:00;;;;;;;2.50;1.17;;;;;;;;;;5024048;28;20311;-89
2022/09/26 14:37:41;;;;;;;2.57;0.80;;;;;;;;;;5025330;28;20193;-86
2022/09/26 14:40:22;;;;;;;4.23;1.30;;;;;;;;;;5026787;28;20234;-89
2022/09/26 14:43:00;;;;;;;1.70;1.00;;;;;;;;;;5018497;28;20219;-90
2022/09/26 14:45:32;;;;;;;2.97;0.93;;;;;;;;;;5023016;28;20246;-88
2022/09/26 14:48:29;;;;;;;1.43;0.90;;;;;;;;;;5024769;28;20394;-89
2022/09/26 14:50:59;;;;;;;4.50;1.67;;;;;;;;;;5022039;28;20235;-88
2022/09/26 14:53:34;;;;;;;8.30;2.77;;;;;;;;;;5020532;28;20681;-87
2022/09/26 14:56:04;;;;;;;3.40;1.40;;;;;;;;;;5019683;28;20309;-88
2022/09/26 14:58:34;;;;;;;8.47;2.80;;;;;;;;;;5023010;28;20295;-88
2022/09/26 15:03:57;;;;;;;3.40;1.47;;;;;;;;;;5023415;28;20211;-90
2022/09/26 15:06:26;;;;;;;4.17;1.00;;;;;;;;;;5022830;28;21073;-89
2022/09/26 15:08:58;;;;;;;3.90;1.20;;;;;;;;;;5024428;28;20203;-89
2022/09/26 15:11:29;;;;;;;3.23;1.23;;;;;;;;;;5025482;28;20199;-90
2022/09/26 15:13:57;;;;;;;2.60;1.27;;;;;;;;;;5022528;28;20290;-88
2022/09/26 15:16:27;;;;;;;3.93;1.20;;;;;;;;;;5025771;28;20239;-89
2022/09/26 15:18:56;;;;;;;5.60;1.03;;;;;;;;;;5021273;28;20204;-88
2022/09/26 15:21:26;;;;;;;2.93;1.30;;;;;;;;;;5023788;28;20228;-88
2022/09/26 15:23:57;;;;;;;3.17;2.07;;;;;;;;;;5020262;28;20258;-87
2022/09/26 15:26:31;;;;;;;6.23;1.20;;;;;;;;;;5021570;28;20754;-87
2022/09/26 15:29:03;;;;;;;1.53;1.03;;;;;;;;;;5024226;28;20265;-91